createdAt,value
2023-04-26T00:00:22.783Z,118.7692
2023-04-26T00:01:24.510Z,116.3846
2023-04-26T00:02:26.276Z,116.5385
2023-04-26T00:03:27.976Z,116.1538
2023-04-26T00:04:29.659Z,116.0769
2023-04-26T00:05:31.216Z,128.2308
2023-04-26T00:06:32.747Z,143.8462
2023-04-26T00:07:34.403Z,146.4615
2023-04-26T00:08:36.102Z,150.6923
2023-04-26T00:09:37.693Z,146.9231
2023-04-26T00:10:39.330Z,148.6154
2023-04-26T00:11:40.972Z,157.1538
2023-04-26T00:12:42.640Z,155.1538
2023-04-26T00:13:44.858Z,129.5385
2023-04-26T00:14:45.934Z,116.9231
2023-04-26T00:15:47.571Z,115.3846
2023-04-26T00:16:49.328Z,111.7692
2023-04-26T00:17:51.949Z,116.8462
2023-04-26T00:18:53.850Z,137.5385
2023-04-26T00:19:54.129Z,138.5385
2023-04-26T00:20:57.284Z,143.0000
2023-04-26T00:21:57.425Z,151.8462
2023-04-26T00:22:59.155Z,142.3077
2023-04-26T00:24:00.804Z,145.9231
2023-04-26T00:25:02.432Z,140.9231
2023-04-26T00:26:04.112Z,127.8462
2023-04-26T00:27:06.744Z,115.1538
2023-04-26T00:28:07.348Z,109.6923
2023-04-26T00:29:09.018Z,109.3846
2023-04-26T00:30:10.681Z,111.3077
2023-04-26T00:31:12.353Z,125.6154
2023-04-26T00:32:13.965Z,139.9231
2023-04-26T00:33:15.636Z,145.5385
2023-04-26T00:34:17.237Z,143.4615
2023-04-26T00:35:18.897Z,144.0000
2023-04-26T00:36:20.560Z,143.8462
2023-04-26T00:37:22.203Z,130.0769
2023-04-26T00:38:23.892Z,112.7692
2023-04-26T00:39:25.546Z,107.0769
2023-04-26T00:40:27.136Z,105.5385
2023-04-26T00:41:28.819Z,104.6923
2023-04-26T00:42:30.422Z,105.2308
2023-04-26T00:43:32.151Z,106.8462
2023-04-26T00:44:33.765Z,112.6154
2023-04-26T00:45:35.536Z,114.0000
2023-04-26T00:46:37.038Z,111.6154
2023-04-26T00:47:38.782Z,115.6154
2023-04-26T00:48:40.401Z,121.8462
2023-04-26T00:49:42.125Z,136.5385
2023-04-26T00:50:43.629Z,139.6923
2023-04-26T00:51:45.363Z,147.0000
2023-04-26T00:52:46.956Z,147.0769
2023-04-26T00:53:48.653Z,147.3077
2023-04-26T00:54:50.345Z,143.6923
2023-04-26T00:55:52.001Z,145.6923
2023-04-26T00:56:53.559Z,139.8462
2023-04-26T00:57:55.291Z,136.7692
2023-04-26T00:58:56.906Z,119.4615
2023-04-26T00:59:58.589Z,110.0769
2023-04-26T01:01:00.264Z,110.5385
2023-04-26T01:02:01.887Z,102.6923
2023-04-26T01:03:03.670Z,105.8462
2023-04-26T01:04:05.406Z,104.6923
2023-04-26T01:05:06.838Z,101.8462
2023-04-26T01:06:08.506Z,120.9231
2023-04-26T01:07:10.152Z,122.3846
2023-04-26T01:08:11.799Z,124.2308
2023-04-26T01:09:13.412Z,138.3846
2023-04-26T01:10:15.178Z,140.1538
2023-04-26T01:11:16.701Z,137.7692
2023-04-26T01:12:18.384Z,140.0000
2023-04-26T01:13:20.041Z,140.3077
2023-04-26T01:14:21.764Z,138.1538
2023-04-26T01:15:23.324Z,126.9231
2023-04-26T01:16:25.094Z,113.2308
2023-04-26T01:17:26.701Z,102.4615
2023-04-26T01:18:28.326Z,103.2308
2023-04-26T01:19:30.035Z,98.2308
2023-04-26T01:20:31.643Z,106.3077
2023-04-26T01:21:33.286Z,103.4615
2023-04-26T01:22:34.985Z,105.3077
2023-04-26T01:23:36.515Z,107.3077
2023-04-26T01:24:38.264Z,111.5385
2023-04-26T01:25:39.832Z,132.3846
2023-04-26T01:26:41.505Z,135.0769
2023-04-26T01:27:43.190Z,136.8462
2023-04-26T01:28:44.807Z,138.0769
2023-04-26T01:29:47.534Z,142.2308
2023-04-26T01:30:48.200Z,142.6154
2023-04-26T01:31:49.722Z,142.8462
2023-04-26T01:32:51.457Z,143.6154
2023-04-26T01:33:53.013Z,142.0769
2023-04-26T01:34:54.717Z,140.2308
2023-04-26T01:35:56.416Z,125.2308
2023-04-26T01:36:58.014Z,112.7692
2023-04-26T01:37:59.646Z,108.0000
2023-04-26T01:39:01.341Z,104.3846
2023-04-26T01:40:02.986Z,104.8462
2023-04-26T01:41:04.660Z,104.7692
2023-04-26T01:42:06.319Z,103.0000
2023-04-26T01:43:07.951Z,114.4615
2023-04-26T01:44:09.533Z,110.3077
2023-04-26T01:45:11.278Z,109.5385
2023-04-26T01:46:12.957Z,109.0000
2023-04-26T01:47:14.526Z,106.0000
2023-04-26T01:48:16.157Z,105.5385
2023-04-26T01:49:17.844Z,107.6923
2023-04-26T01:50:19.518Z,108.1538
2023-04-26T01:51:21.183Z,114.3077
2023-04-26T01:52:22.795Z,130.0000
2023-04-26T01:53:24.464Z,136.6923
2023-04-26T01:54:26.162Z,142.3846
2023-04-26T01:55:27.796Z,140.8462
2023-04-26T01:56:29.426Z,140.8462
2023-04-26T01:57:31.080Z,137.3077
2023-04-26T01:58:32.707Z,136.5385
2023-04-26T01:59:34.375Z,135.8462
2023-04-26T02:00:36.121Z,138.3846
2023-04-26T02:01:37.755Z,135.4615
2023-04-26T02:02:39.330Z,135.2308
2023-04-26T02:03:41.014Z,112.7692
2023-04-26T02:04:42.666Z,102.8462
2023-04-26T02:05:44.767Z,103.1538
2023-04-26T02:06:45.901Z,99.1538
2023-04-26T02:07:47.616Z,100.0769
2023-04-26T02:08:49.409Z,107.3077
2023-04-26T02:09:50.905Z,107.1538
2023-04-26T02:10:52.559Z,105.7692
2023-04-26T02:11:54.242Z,103.0769
2023-04-26T02:12:55.855Z,111.6154
2023-04-26T02:13:57.484Z,122.2308
2023-04-26T02:14:59.109Z,132.2308
2023-04-26T02:16:00.828Z,134.6923
2023-04-26T02:17:02.450Z,138.3077
2023-04-26T02:18:04.175Z,137.4615
2023-04-26T02:19:05.802Z,139.2308
2023-04-26T02:20:07.389Z,135.4615
2023-04-26T02:21:09.023Z,138.5385
2023-04-26T02:22:10.733Z,134.3077
2023-04-26T02:23:12.353Z,130.8462
2023-04-26T02:24:14.006Z,124.5385
2023-04-26T02:25:15.694Z,109.6923
2023-04-26T02:26:18.238Z,93.3846
2023-04-26T02:27:18.965Z,98.6923
2023-04-26T02:28:20.643Z,92.6923
2023-04-26T02:29:35.958Z,92.4615
2023-04-26T02:30:24.501Z,96.0769
2023-04-26T02:31:25.605Z,101.0000
2023-04-26T02:32:27.270Z,101.0769
2023-04-26T02:33:28.921Z,98.8462
2023-04-26T02:34:30.506Z,106.0000
2023-04-26T02:35:32.203Z,118.5385
2023-04-26T02:36:33.817Z,127.0769
2023-04-26T02:37:35.832Z,128.6923
2023-04-26T02:38:37.313Z,132.0000
2023-04-26T02:39:38.756Z,130.6923
2023-04-26T02:40:40.390Z,133.6923
2023-04-26T02:41:42.081Z,126.7692
2023-04-26T02:42:43.723Z,127.2308
2023-04-26T02:43:45.426Z,121.4615
2023-04-26T02:44:46.988Z,101.0000
2023-04-26T02:45:48.670Z,96.4615
2023-04-26T02:46:50.332Z,89.3077
2023-04-26T02:47:52.064Z,84.6154
2023-04-26T02:48:54.052Z,85.0000
2023-04-26T02:49:55.343Z,82.3846
2023-04-26T02:50:56.909Z,85.0000
2023-04-26T02:51:58.489Z,87.5385
2023-04-26T02:53:00.672Z,86.3077
2023-04-26T02:54:01.824Z,100.0769
2023-04-26T02:55:03.745Z,123.5385
2023-04-26T02:56:05.110Z,123.1538
2023-04-26T02:57:06.724Z,122.7692
2023-04-26T02:58:08.380Z,119.8462
2023-04-26T02:59:10.022Z,116.1538
2023-04-26T03:00:11.748Z,118.5385
2023-04-26T03:01:13.397Z,117.6154
2023-04-26T03:02:15.088Z,95.6154
2023-04-26T03:03:16.916Z,80.7692
2023-04-26T03:04:18.461Z,76.1538
2023-04-26T03:05:20.201Z,82.3077
2023-04-26T03:06:21.594Z,81.3846
2023-04-26T03:07:23.302Z,85.1538
2023-04-26T03:08:24.931Z,84.4615
2023-04-26T03:09:26.625Z,81.3846
2023-04-26T03:10:28.234Z,85.6154
2023-04-26T03:11:29.875Z,85.0000
2023-04-26T03:12:31.564Z,97.6154
2023-04-26T03:13:33.123Z,103.1538
2023-04-26T03:14:36.768Z,96.1538
2023-04-26T03:15:36.459Z,96.4615
2023-04-26T03:16:38.190Z,112.4615
2023-04-26T03:17:39.781Z,114.0000
2023-04-26T03:18:41.448Z,112.8462
2023-04-26T03:19:43.077Z,118.1538
2023-04-26T03:20:44.783Z,109.6923
2023-04-26T03:21:46.370Z,94.5385
2023-04-26T03:22:48.055Z,84.9231
2023-04-26T03:23:49.657Z,90.1538
2023-04-26T03:24:51.482Z,99.8462
2023-04-26T03:25:53.165Z,92.2308
2023-04-26T03:26:54.782Z,95.6923
2023-04-26T03:27:56.364Z,98.0000
2023-04-26T03:28:58.672Z,110.6154
2023-04-26T03:29:59.720Z,116.0769
2023-04-26T03:31:01.397Z,112.8462
2023-04-26T03:32:03.723Z,95.6154
2023-04-26T03:33:04.647Z,80.5385
2023-04-26T03:34:06.270Z,70.3846
2023-04-26T03:35:07.971Z,71.0000
2023-04-26T03:36:09.678Z,75.1538
2023-04-26T03:37:11.287Z,79.1538
2023-04-26T03:38:12.905Z,73.9231
2023-04-26T03:39:14.548Z,73.6154
2023-04-26T03:40:16.208Z,75.1538
2023-04-26T03:41:17.917Z,73.6154
2023-04-26T03:42:19.746Z,71.5385
2023-04-26T03:43:21.226Z,71.0000
2023-04-26T03:44:22.764Z,77.4615
2023-04-26T03:45:24.470Z,75.9231
2023-04-26T03:46:26.149Z,79.0000
2023-04-26T03:47:27.814Z,78.1538
2023-04-26T03:48:29.440Z,76.6923
2023-04-26T03:49:31.112Z,81.8462
2023-04-26T03:50:32.704Z,86.8462
2023-04-26T03:51:34.378Z,98.9231
2023-04-26T03:52:35.991Z,105.0769
2023-04-26T03:53:37.771Z,114.6154
2023-04-26T03:54:39.292Z,117.1538
2023-04-26T03:55:40.957Z,117.5385
2023-04-26T03:56:42.626Z,120.0000
2023-04-26T03:57:44.360Z,117.0000
2023-04-26T03:58:46.233Z,125.5385
2023-04-26T03:59:47.621Z,127.6154
2023-04-26T04:00:50.205Z,137.9231
2023-04-26T04:01:50.894Z,144.5385
2023-04-26T04:02:52.643Z,140.4615
2023-04-26T04:03:54.989Z,134.0769
2023-04-26T04:04:55.971Z,131.6154
2023-04-26T04:05:57.512Z,136.3077
2023-04-26T04:06:59.147Z,144.1538
2023-04-26T04:08:00.808Z,146.8462
2023-04-26T04:09:02.762Z,144.7692
2023-04-26T04:10:04.144Z,147.3077
2023-04-26T04:11:05.724Z,151.4615
2023-04-26T04:12:08.246Z,148.6923
2023-04-26T04:13:09.020Z,155.4615
2023-04-26T04:14:10.776Z,157.6154
2023-04-26T04:15:12.391Z,160.2308
2023-04-26T04:16:14.755Z,165.3846
2023-04-26T04:17:15.625Z,170.4615
2023-04-26T04:18:17.355Z,169.6154
2023-04-26T04:19:19.110Z,174.8462
2023-04-26T04:20:21.306Z,175.9231
2023-04-26T04:21:22.295Z,177.6154
2023-04-26T04:22:23.952Z,185.0769
2023-04-26T04:23:25.544Z,184.0769
2023-04-26T04:24:27.298Z,186.0000
2023-04-26T04:25:28.837Z,188.9231
2023-04-26T04:26:30.565Z,191.0000
2023-04-26T04:27:32.146Z,194.6154
2023-04-26T04:28:33.846Z,198.3846
2023-04-26T04:29:35.438Z,200.3077
2023-04-26T04:30:37.122Z,205.1538
2023-04-26T04:31:38.876Z,199.1538
2023-04-26T04:32:40.832Z,198.0000
2023-04-26T04:33:42.100Z,200.2308
2023-04-26T04:34:43.737Z,204.1538
2023-04-26T04:35:46.223Z,206.1538
2023-04-26T04:36:47.069Z,207.9231
2023-04-26T04:37:48.713Z,216.4615
2023-04-26T04:38:50.609Z,220.3077
2023-04-26T04:39:51.940Z,226.8462
2023-04-26T04:40:53.684Z,226.4615
2023-04-26T04:41:55.538Z,221.4615
2023-04-26T04:42:56.966Z,225.9231
2023-04-26T04:43:58.619Z,224.6154
2023-04-26T04:45:00.210Z,226.4615
2023-04-26T04:46:01.936Z,226.2308
2023-04-26T04:47:03.610Z,229.8462
2023-04-26T04:48:05.413Z,225.9231
2023-04-26T04:49:07.938Z,233.0769
2023-04-26T04:50:09.025Z,236.2308
2023-04-26T04:51:10.268Z,235.6923
2023-04-26T04:52:12.027Z,234.9231
2023-04-26T04:53:13.648Z,239.8462
2023-04-26T04:54:15.278Z,243.9231
2023-04-26T04:55:16.914Z,246.6154
2023-04-26T04:56:18.588Z,234.7692
2023-04-26T04:57:20.205Z,235.3846
2023-04-26T04:58:21.900Z,238.3846
2023-04-26T04:59:23.475Z,243.8462
2023-04-26T05:00:25.174Z,244.0769
2023-04-26T05:01:26.792Z,238.2308
2023-04-26T05:02:28.664Z,252.7692
2023-04-26T05:03:30.262Z,252.7692
2023-04-26T05:04:32.199Z,250.6923
2023-04-26T05:05:33.359Z,256.8462
2023-04-26T05:06:35.177Z,258.7692
2023-04-26T05:07:36.734Z,259.9231
2023-04-26T05:08:38.365Z,272.0769
2023-04-26T05:09:40.064Z,267.4615
2023-04-26T05:10:41.702Z,262.0000
2023-04-26T05:11:43.266Z,264.4615
2023-04-26T05:12:45.095Z,265.3846
2023-04-26T05:13:46.614Z,264.5385
2023-04-26T05:14:48.248Z,264.7692
2023-04-26T05:15:49.890Z,263.0769
2023-04-26T05:16:51.747Z,276.3077
2023-04-26T05:17:53.220Z,275.3077
2023-04-26T05:18:54.985Z,285.9231
2023-04-26T05:19:56.512Z,280.0000
2023-04-26T05:20:58.190Z,283.5385
2023-04-26T05:21:59.852Z,284.8462
2023-04-26T05:23:01.508Z,288.4615
2023-04-26T05:24:03.171Z,283.1538
2023-04-26T05:25:05.751Z,288.8462
2023-04-26T05:26:06.418Z,288.7692
2023-04-26T05:27:08.053Z,294.5385
2023-04-26T05:28:09.730Z,299.3077
2023-04-26T05:29:11.394Z,298.1538
2023-04-26T05:30:13.043Z,297.5385
2023-04-26T05:31:14.646Z,295.0000
2023-04-26T05:32:16.356Z,295.7692
2023-04-26T05:33:18.965Z,297.2308
2023-04-26T05:34:19.700Z,303.1538
2023-04-26T05:35:21.298Z,302.0769
2023-04-26T05:36:22.955Z,308.0769
2023-04-26T05:37:25.527Z,311.7692
2023-04-26T05:38:27.184Z,311.8462
2023-04-26T05:39:27.836Z,317.4615
2023-04-26T05:40:29.516Z,321.3846
2023-04-26T05:41:31.075Z,320.1538
2023-04-26T05:42:32.785Z,319.3846
2023-04-26T05:43:34.425Z,322.0769
2023-04-26T05:44:36.448Z,320.3077
2023-04-26T05:45:37.835Z,320.5385
2023-04-26T05:46:39.814Z,320.8462
2023-04-26T05:47:40.985Z,325.6154
2023-04-26T05:48:42.613Z,332.8462
2023-04-26T05:49:44.254Z,332.1538
2023-04-26T05:50:45.907Z,331.8462
2023-04-26T05:51:47.520Z,330.2308
2023-04-26T05:52:49.165Z,324.6154
2023-04-26T05:53:51.173Z,332.3846
2023-04-26T05:54:52.467Z,335.1538
2023-04-26T05:55:54.192Z,342.3077
2023-04-26T05:56:57.822Z,340.0769
2023-04-26T05:57:57.458Z,341.6154
2023-04-26T05:59:00.029Z,338.3846
2023-04-26T06:00:00.843Z,346.7692
2023-04-26T06:01:02.516Z,346.6923
2023-04-26T06:02:04.089Z,355.0769
2023-04-26T06:03:05.957Z,354.9231
2023-04-26T06:04:07.898Z,353.9231
2023-04-26T06:05:09.414Z,345.3846
2023-04-26T06:06:10.725Z,350.4615
2023-04-26T06:07:12.353Z,342.7692
2023-04-26T06:08:13.966Z,350.2308
2023-04-26T06:09:16.526Z,359.0769
2023-04-26T06:10:17.328Z,359.3077
2023-04-26T06:11:19.456Z,359.3846
2023-04-26T06:12:20.578Z,352.6154
2023-04-26T06:13:22.264Z,363.0000
2023-04-26T06:15:25.612Z,372.0000
2023-04-26T06:16:27.924Z,373.0769
2023-04-26T06:17:28.920Z,375.3846
2023-04-26T06:18:30.491Z,379.0000
2023-04-26T06:19:32.180Z,379.5385
2023-04-26T06:20:33.853Z,378.8462
2023-04-26T06:21:35.937Z,377.9231
2023-04-26T06:22:37.096Z,377.8462
2023-04-26T06:23:38.788Z,376.0769
2023-04-26T06:24:40.372Z,375.9231
2023-04-26T06:25:42.138Z,371.3846
2023-04-26T06:26:43.758Z,372.5385
2023-04-26T06:27:45.384Z,377.6923
2023-04-26T06:28:47.008Z,380.6923
2023-04-26T06:29:49.448Z,379.0000
2023-04-26T06:30:50.359Z,374.6923
2023-04-26T06:31:52.029Z,376.9231
2023-04-26T06:32:53.654Z,376.5385
2023-04-26T06:33:55.578Z,387.1538
2023-04-26T06:34:56.908Z,384.5385
2023-04-26T06:35:58.650Z,386.6923
2023-04-26T06:37:00.450Z,389.3846
2023-04-26T06:38:01.884Z,384.0769
2023-04-26T06:39:03.501Z,388.3077
2023-04-26T06:40:05.894Z,388.0769
2023-04-26T06:41:06.883Z,384.2308
2023-04-26T06:42:08.575Z,388.6154
2023-04-26T06:43:10.144Z,385.3846
2023-04-26T06:44:11.800Z,388.3846
2023-04-26T06:45:13.402Z,388.0000
2023-04-26T06:46:15.221Z,387.3846
2023-04-26T06:47:16.761Z,385.0000
2023-04-26T06:48:18.387Z,389.4615
2023-04-26T06:49:20.030Z,392.0000
2023-04-26T06:50:21.631Z,382.1538
2023-04-26T06:51:23.384Z,382.3846
2023-04-26T06:52:24.992Z,382.5385
2023-04-26T06:53:26.638Z,387.2308
2023-04-26T06:54:28.254Z,388.6923
2023-04-26T06:55:29.932Z,385.6154
2023-04-26T06:56:31.555Z,389.3846
2023-04-26T06:57:33.195Z,388.6154
2023-04-26T06:58:34.767Z,390.2308
2023-04-26T06:59:36.431Z,394.3077
2023-04-26T07:00:38.109Z,387.3077
2023-04-26T07:01:39.839Z,385.0769
2023-04-26T07:02:41.512Z,389.1538
2023-04-26T07:03:43.189Z,382.2308
2023-04-26T07:04:45.001Z,393.6154
2023-04-26T07:05:46.322Z,395.6923
2023-04-26T07:06:48.356Z,399.3846
2023-04-26T07:07:49.629Z,399.8462
2023-04-26T07:08:53.421Z,398.3077
2023-04-26T07:09:52.897Z,396.7692
2023-04-26T07:10:54.522Z,391.2308
2023-04-26T07:11:56.446Z,386.3077
2023-04-26T07:12:58.909Z,387.5385
2023-04-26T07:13:59.874Z,384.5385
2023-04-26T07:15:01.095Z,384.3846
2023-04-26T07:16:02.900Z,381.2308
2023-04-26T07:17:04.442Z,378.5385
2023-04-26T07:18:06.489Z,378.3077
2023-04-26T07:19:07.868Z,392.3846
2023-04-26T07:20:09.350Z,393.6154
2023-04-26T07:21:11.013Z,390.3077
2023-04-26T07:22:12.666Z,388.2308
2023-04-26T07:23:14.407Z,398.3077
2023-04-26T07:24:15.978Z,396.9231
2023-04-26T07:25:17.534Z,394.3077
2023-04-26T07:26:19.236Z,399.6154
2023-04-26T07:27:21.861Z,408.8462
2023-04-26T07:28:22.693Z,404.0769
2023-04-26T07:29:24.243Z,404.3077
2023-04-26T07:30:26.037Z,400.8462
2023-04-26T07:31:27.547Z,409.9231
2023-04-26T07:32:29.311Z,407.6154
2023-04-26T07:33:31.009Z,410.6923
2023-04-26T07:34:32.573Z,412.1538
2023-04-26T07:35:34.144Z,410.0000
2023-04-26T07:36:35.856Z,415.0000
2023-04-26T07:37:37.451Z,415.6154
2023-04-26T07:38:39.146Z,419.2308
2023-04-26T07:39:42.463Z,421.3846
2023-04-26T07:40:42.440Z,417.7692
2023-04-26T07:41:44.324Z,416.3846
2023-04-26T07:42:46.451Z,423.6923
2023-04-26T07:43:47.282Z,428.1538
2023-04-26T07:44:49.009Z,400.7692
2023-04-26T07:45:50.593Z,351.4615
2023-04-26T07:46:52.389Z,308.2308
2023-04-26T07:47:53.904Z,257.8462
2023-04-26T07:48:55.529Z,230.5385
2023-04-26T07:49:57.141Z,192.0000
2023-04-26T07:50:59.281Z,215.2308
2023-04-26T07:52:00.417Z,251.7692
2023-04-26T07:53:02.079Z,271.3846
2023-04-26T07:54:03.804Z,275.3077
2023-04-26T07:55:05.396Z,283.9231
2023-04-26T07:56:07.424Z,253.5385
2023-04-26T07:57:08.718Z,268.0000
2023-04-26T07:58:10.384Z,301.5385
2023-04-26T07:59:11.983Z,273.9231
2023-04-26T08:00:13.671Z,292.9231
2023-04-26T08:01:16.816Z,310.7692
2023-04-26T08:02:17.502Z,305.6154
2023-04-26T08:03:18.778Z,313.5385
2023-04-26T08:04:20.381Z,308.8462
2023-04-26T08:05:23.067Z,318.6923
2023-04-26T08:06:23.796Z,328.7692
2023-04-26T08:07:25.262Z,328.5385
2023-04-26T08:08:27.002Z,333.2308
2023-04-26T08:09:28.528Z,344.3846
2023-04-26T08:10:30.218Z,341.6923
2023-04-26T08:11:31.897Z,350.2308
2023-04-26T08:12:33.538Z,354.7692
2023-04-26T08:13:35.077Z,363.5385
2023-04-26T08:14:36.810Z,371.5385
2023-04-26T08:15:38.389Z,370.5385
2023-04-26T08:16:40.163Z,379.0000
2023-04-26T08:17:42.068Z,373.1538
2023-04-26T08:18:46.044Z,373.2308
2023-04-26T08:19:45.062Z,381.0000
2023-04-26T08:20:46.617Z,384.8462
2023-04-26T08:21:48.383Z,375.7692
2023-04-26T08:22:49.998Z,377.8462
2023-04-26T08:23:51.739Z,374.4615
2023-04-26T08:24:53.228Z,376.9231
2023-04-26T08:25:54.934Z,376.6154
2023-04-26T08:26:56.559Z,387.0769
2023-04-26T08:27:58.208Z,399.5385
2023-04-26T08:28:59.915Z,396.4615
2023-04-26T08:30:01.624Z,400.3846
2023-04-26T08:31:03.206Z,400.9231
2023-04-26T08:32:04.958Z,416.1538
2023-04-26T08:33:06.573Z,410.0000
2023-04-26T08:34:08.041Z,417.3846
2023-04-26T08:35:09.688Z,425.0000
2023-04-26T08:36:11.417Z,426.6923
2023-04-26T08:37:13.096Z,426.3846
2023-04-26T08:38:14.681Z,435.7692
2023-04-26T08:39:16.240Z,434.3077
2023-04-26T08:40:18.025Z,442.5385
2023-04-26T08:41:19.547Z,431.3846
2023-04-26T08:42:21.360Z,437.0769
2023-04-26T08:43:22.920Z,429.1538
2023-04-26T08:44:24.522Z,435.3846
2023-04-26T08:45:26.175Z,436.4615
2023-04-26T08:46:27.877Z,441.9231
2023-04-26T08:47:29.480Z,443.5385
2023-04-26T08:48:31.170Z,445.4615
2023-04-26T08:49:32.686Z,454.6923
2023-04-26T08:50:34.419Z,447.6154
2023-04-26T08:51:36.057Z,462.4615
2023-04-26T08:52:37.743Z,458.1538
2023-04-26T08:53:39.361Z,446.5385
2023-04-26T08:54:40.915Z,442.9231
2023-04-26T08:55:42.622Z,446.0000
2023-04-26T08:56:44.217Z,442.4615
2023-04-26T08:57:45.993Z,442.6923
2023-04-26T08:58:47.591Z,441.9231
2023-04-26T08:59:49.211Z,440.3846
2023-04-26T09:00:50.956Z,441.3846
2023-04-26T09:01:52.541Z,438.6154
2023-04-26T09:02:54.413Z,444.8462
2023-04-26T09:03:56.181Z,445.1538
2023-04-26T09:04:57.458Z,441.6923
2023-04-26T09:06:00.175Z,438.3077
2023-04-26T09:07:00.690Z,436.8462
2023-04-26T09:08:02.432Z,442.6154
2023-04-26T09:09:04.031Z,437.9231
2023-04-26T09:10:05.661Z,442.7692
2023-04-26T09:11:07.245Z,442.3077
2023-04-26T09:12:08.985Z,442.3846
2023-04-26T09:13:10.613Z,438.7692
2023-04-26T09:14:12.252Z,439.9231
2023-04-26T09:15:13.897Z,445.8462
2023-04-26T09:16:15.611Z,446.0000
2023-04-26T09:17:17.184Z,440.9231
2023-04-26T09:18:18.786Z,446.2308
2023-04-26T09:19:22.046Z,457.8462
2023-04-26T09:20:22.089Z,454.4615
2023-04-26T09:21:23.668Z,460.6923
2023-04-26T09:22:25.357Z,457.5385
2023-04-26T09:23:26.987Z,469.3846
2023-04-26T09:24:29.521Z,442.7692
2023-04-26T09:25:30.259Z,422.0000
2023-04-26T09:26:31.892Z,390.6923
2023-04-26T09:27:33.577Z,413.9231
2023-04-26T09:28:35.166Z,421.8462
2023-04-26T09:29:36.865Z,425.0769
2023-04-26T09:30:38.972Z,420.9231
2023-04-26T09:31:40.356Z,411.6154
2023-04-26T09:32:41.979Z,426.0769
2023-04-26T09:33:43.595Z,426.8462
2023-04-26T09:34:45.604Z,430.9231
2023-04-26T09:35:46.885Z,435.8462
2023-04-26T09:36:48.614Z,436.4615
2023-04-26T09:37:58.429Z,423.5385
2023-04-26T09:38:52.017Z,418.1538
2023-04-26T09:39:53.479Z,357.3077
2023-04-26T09:40:55.010Z,357.2308
2023-04-26T09:41:56.774Z,347.0000
2023-04-26T09:42:59.312Z,382.1538
2023-04-26T09:44:00.686Z,389.2308
2023-04-26T09:45:01.703Z,388.6923
2023-04-26T09:46:04.292Z,385.7692
2023-04-26T09:47:05.246Z,380.4615
2023-04-26T09:48:06.650Z,392.5385
2023-04-26T09:49:09.242Z,395.3846
2023-04-26T09:50:10.204Z,396.4615
2023-04-26T09:51:11.662Z,395.0000
2023-04-26T09:52:13.166Z,403.6154
2023-04-26T09:53:14.834Z,399.0769
2023-04-26T09:54:16.527Z,406.8462
2023-04-26T09:55:25.476Z,405.0769
2023-04-26T09:56:19.966Z,414.8333
2023-04-26T09:57:21.421Z,412.8462
2023-04-26T09:58:23.031Z,406.4615
2023-04-26T09:59:24.667Z,410.4615
2023-04-26T10:00:26.391Z,416.7692
2023-04-26T10:01:28.139Z,409.6923
2023-04-26T10:02:29.707Z,412.7692
2023-04-26T10:03:31.416Z,420.6923
2023-04-26T10:04:32.993Z,388.2308
2023-04-26T10:05:34.493Z,324.5385
2023-04-26T10:06:36.262Z,363.8462
2023-04-26T10:07:38.821Z,384.3077
2023-04-26T10:08:40.434Z,392.3077
2023-04-26T10:09:41.169Z,391.7692
2023-04-26T10:10:43.018Z,387.0769
2023-04-26T10:11:44.710Z,410.6923
2023-04-26T10:12:48.052Z,412.6154
2023-04-26T10:13:48.078Z,426.6154
2023-04-26T10:14:50.294Z,391.9231
2023-04-26T10:15:51.109Z,378.3077
2023-04-26T10:16:53.656Z,382.3846
2023-04-26T10:17:54.411Z,383.0769
2023-04-26T10:18:56.190Z,374.5385
2023-04-26T10:19:57.689Z,356.1538
2023-04-26T10:20:59.384Z,266.1538
2023-04-26T10:22:01.027Z,242.1538
2023-04-26T10:23:03.529Z,243.3846
2023-04-26T10:24:04.521Z,340.4615
2023-04-26T10:25:06.818Z,362.6923
2023-04-26T10:26:07.573Z,361.3077
2023-04-26T10:27:09.154Z,374.2308
2023-04-26T10:28:10.901Z,386.5385
2023-04-26T10:29:12.482Z,393.5385
2023-04-26T10:30:14.090Z,391.8462
2023-04-26T10:31:15.783Z,387.5385
2023-04-26T10:32:17.635Z,408.6923
2023-04-26T10:33:19.177Z,420.6923
2023-04-26T10:34:20.638Z,399.6923
2023-04-26T10:35:22.400Z,396.3846
2023-04-26T10:36:23.915Z,314.7692
2023-04-26T10:37:25.602Z,341.9231
2023-04-26T10:38:27.256Z,329.4615
2023-04-26T10:39:29.056Z,356.8462
2023-04-26T10:40:30.598Z,380.5385
2023-04-26T10:41:33.217Z,383.7692
2023-04-26T10:42:33.848Z,388.0769
2023-04-26T10:43:35.516Z,393.9231
2023-04-26T10:44:37.170Z,392.6923
2023-04-26T10:45:38.993Z,396.3846
2023-04-26T10:46:41.520Z,393.8462
2023-04-26T10:47:42.022Z,390.6154
2023-04-26T10:48:43.753Z,399.8462
2023-04-26T10:49:45.388Z,406.0000
2023-04-26T10:50:48.046Z,403.1538
2023-04-26T10:51:49.647Z,388.8462
2023-04-26T10:52:50.406Z,403.0769
2023-04-26T10:53:54.006Z,415.6154
2023-04-26T10:54:53.605Z,397.1538
2023-04-26T10:55:55.214Z,389.9231
2023-04-26T10:56:56.918Z,376.8462
2023-04-26T10:57:58.545Z,366.4615
2023-04-26T10:59:00.193Z,312.6923
2023-04-26T11:00:01.788Z,252.7692
2023-04-26T11:01:03.556Z,244.1538
2023-04-26T11:02:05.123Z,318.8462
2023-04-26T11:03:07.059Z,364.0000
2023-04-26T11:04:08.580Z,370.3846
2023-04-26T11:05:10.093Z,389.3846
2023-04-26T11:06:12.620Z,397.0769
2023-04-26T11:07:13.382Z,383.1538
2023-04-26T11:08:15.028Z,374.2308
2023-04-26T11:09:16.606Z,383.0000
2023-04-26T11:10:18.330Z,383.6154
2023-04-26T11:11:19.974Z,402.0769
2023-04-26T11:12:21.640Z,396.0000
2023-04-26T11:13:23.259Z,398.8462
2023-04-26T11:14:24.934Z,415.1538
2023-04-26T11:15:26.497Z,402.5385
2023-04-26T11:16:29.195Z,400.6154
2023-04-26T11:17:30.111Z,387.3077
2023-04-26T11:18:31.590Z,375.3077
2023-04-26T11:19:33.218Z,352.5385
2023-04-26T11:20:34.842Z,383.9231
2023-04-26T11:21:36.484Z,389.3077
2023-04-26T11:22:38.629Z,398.0769
2023-04-26T11:23:39.720Z,400.8462
2023-04-26T11:24:41.406Z,400.7692
2023-04-26T11:25:43.034Z,402.2308
2023-04-26T11:26:44.748Z,316.8462
2023-04-26T11:27:46.386Z,256.9231
2023-04-26T11:28:48.041Z,255.7692
2023-04-26T11:29:49.687Z,158.5385
2023-04-26T11:30:51.382Z,127.2308
2023-04-26T11:31:53.200Z,135.4615
2023-04-26T11:32:54.725Z,247.9231
2023-04-26T11:33:56.868Z,331.9231
2023-04-26T11:34:58.026Z,350.9231
2023-04-26T11:35:59.643Z,364.5385
2023-04-26T11:37:01.640Z,365.6154
2023-04-26T11:38:02.973Z,364.0769
2023-04-26T11:39:04.624Z,370.7692
2023-04-26T11:40:06.183Z,336.0769
2023-04-26T11:41:07.946Z,234.4615
2023-04-26T11:42:09.526Z,277.1538
2023-04-26T11:43:11.306Z,356.3077
2023-04-26T11:44:12.892Z,374.6923
2023-04-26T11:45:14.499Z,378.5385
2023-04-26T11:46:16.111Z,378.8462
2023-04-26T11:47:17.841Z,381.2308
2023-04-26T11:48:19.506Z,344.1538
2023-04-26T11:49:21.112Z,359.3077
2023-04-26T11:50:22.713Z,356.7692
2023-04-26T11:51:24.390Z,363.6923
2023-04-26T11:52:26.048Z,370.3077
2023-04-26T11:53:27.785Z,336.7692
2023-04-26T11:54:29.280Z,371.0000
2023-04-26T11:55:31.014Z,373.7692
2023-04-26T11:56:32.609Z,328.4615
2023-04-26T11:57:34.339Z,255.6923
2023-04-26T11:58:36.110Z,204.3846
2023-04-26T11:59:37.558Z,166.3077
2023-04-26T12:00:39.188Z,230.0000
2023-04-26T12:01:40.950Z,329.3077
2023-04-26T12:02:42.633Z,334.1538
2023-04-26T12:03:44.370Z,306.5385
2023-04-26T12:04:46.033Z,338.5385
2023-04-26T12:05:47.508Z,296.0000
2023-04-26T12:06:49.071Z,201.9231